createdAt,value
2022-12-01T00:01:31.790Z,61.57
2022-12-01T00:03:59.629Z,50.43
2022-12-01T00:06:27.787Z,56.23
2022-12-01T00:09:18.003Z,57.27
2022-12-01T00:11:47.397Z,56.90
2022-12-01T00:14:16.978Z,49.73
2022-12-01T00:16:45.328Z,55.37
2022-12-01T00:19:13.235Z,54.07
2022-12-01T00:21:41.007Z,46.27
2022-12-01T00:24:10.460Z,49.17
2022-12-01T00:26:39.151Z,61.67
2022-12-01T00:29:07.064Z,55.13
2022-12-01T00:31:36.630Z,57.40
2022-12-01T00:34:08.273Z,53.23
2022-12-01T00:36:39.040Z,52.10
2022-12-01T00:39:06.827Z,50.37
2022-12-01T00:41:34.914Z,59.77
2022-12-01T00:44:02.676Z,56.43
2022-12-01T00:46:30.497Z,53.93
2022-12-01T00:48:59.916Z,57.53
2022-12-01T00:51:27.945Z,55.53
2022-12-01T00:53:55.748Z,56.63
2022-12-01T00:56:23.701Z,53.73
2022-12-01T00:58:51.494Z,58.30
2022-12-01T01:01:20.669Z,64.93
2022-12-01T01:03:48.620Z,62.93
2022-12-01T01:06:17.859Z,58.13
2022-12-01T01:08:46.012Z,53.37
2022-12-01T01:11:13.875Z,61.00
2022-12-01T01:13:41.650Z,52.07
2022-12-01T01:16:15.436Z,59.40
2022-12-01T01:18:43.757Z,62.77
2022-12-01T01:21:15.043Z,56.17
2022-12-01T01:23:44.288Z,52.83
2022-12-01T01:26:13.773Z,64.33
2022-12-01T01:28:42.229Z,60.23
2022-12-01T01:31:12.293Z,62.97
2022-12-01T01:33:40.675Z,53.53
2022-12-01T01:36:08.856Z,62.90
2022-12-01T01:38:37.219Z,60.00
2022-12-01T01:41:07.410Z,56.23
2022-12-01T01:43:44.047Z,63.07
2022-12-01T01:46:14.004Z,56.80
2022-12-01T01:48:44.724Z,66.43
2022-12-01T01:51:14.455Z,57.87
2022-12-01T01:53:44.589Z,62.87
2022-12-01T01:56:13.855Z,50.00
2022-12-01T01:58:42.925Z,59.67
2022-12-01T02:01:10.753Z,60.60
2022-12-01T02:03:40.964Z,65.80
2022-12-01T02:06:10.605Z,65.27
2022-12-01T02:08:38.926Z,63.33
2022-12-01T02:11:22.566Z,70.03
2022-12-01T02:14:00.348Z,55.33
2022-12-01T02:16:35.071Z,57.23
2022-12-01T02:19:26.430Z,60.83
2022-12-01T02:22:06.428Z,48.90
2022-12-01T02:25:00.279Z,63.30
2022-12-01T02:27:49.144Z,63.43
2022-12-01T02:30:20.558Z,62.20
2022-12-01T02:33:03.501Z,54.90
2022-12-01T02:35:37.659Z,68.13
2022-12-01T02:38:15.761Z,59.90
2022-12-01T02:40:48.010Z,64.10
2022-12-01T02:43:30.386Z,68.57
2022-12-01T02:46:05.319Z,54.77
2022-12-01T02:48:36.651Z,64.53
2022-12-01T02:51:10.506Z,61.57
2022-12-01T02:53:38.400Z,55.37
2022-12-01T02:56:08.467Z,57.47
2022-12-01T02:58:36.281Z,58.37
2022-12-01T03:01:37.893Z,56.93
2022-12-01T03:04:29.542Z,45.90
2022-12-01T03:07:05.528Z,42.77
2022-12-01T03:09:42.303Z,57.13
2022-12-01T03:12:20.959Z,44.27
2022-12-01T03:14:56.868Z,43.43
2022-12-01T03:17:31.908Z,45.03
2022-12-01T03:20:08.730Z,44.87
2022-12-01T03:22:43.077Z,49.47
2022-12-01T03:25:13.395Z,44.43
2022-12-01T03:28:13.558Z,45.90
2022-12-01T03:30:36.887Z,46.83
2022-12-01T03:33:09.986Z,39.97
2022-12-01T03:35:43.990Z,39.23
2022-12-01T03:38:16.842Z,39.47
2022-12-01T03:40:48.192Z,37.20
2022-12-01T03:43:20.766Z,37.33
2022-12-01T03:45:56.415Z,30.50
2022-12-01T03:48:25.258Z,41.17
2022-12-01T03:51:04.248Z,37.60
2022-12-01T03:53:38.126Z,42.13
2022-12-01T03:56:09.038Z,35.63
2022-12-01T03:58:41.290Z,40.87
2022-12-01T04:01:10.299Z,34.47
2022-12-01T04:03:38.118Z,37.83
2022-12-01T04:06:07.984Z,38.50
2022-12-01T04:08:37.696Z,46.23
2022-12-01T04:11:32.155Z,43.03
2022-12-01T04:13:59.402Z,46.03
2022-12-01T04:16:27.426Z,42.93
2022-12-01T04:18:55.311Z,48.57
2022-12-01T04:21:24.505Z,43.07
2022-12-01T04:24:01.627Z,52.60
2022-12-01T04:26:33.202Z,45.33
2022-12-01T04:29:01.094Z,56.27
2022-12-01T04:31:29.400Z,44.93
2022-12-01T04:33:57.819Z,45.40
2022-12-01T04:36:28.273Z,50.70
2022-12-01T04:38:56.081Z,40.90
2022-12-01T04:41:24.000Z,46.80
2022-12-01T04:43:54.045Z,54.43
2022-12-01T04:46:22.231Z,48.20
2022-12-01T04:48:50.066Z,51.10
2022-12-01T04:51:17.981Z,46.83
2022-12-01T04:53:47.204Z,43.67
2022-12-01T04:56:16.461Z,51.37
2022-12-01T04:58:44.391Z,44.53
2022-12-01T05:01:13.908Z,45.37
2022-12-01T05:03:43.691Z,45.80
2022-12-01T05:06:13.390Z,47.03
2022-12-01T05:08:41.694Z,48.53
2022-12-01T05:11:12.796Z,49.67
2022-12-01T05:13:41.834Z,60.03
2022-12-01T05:16:11.559Z,54.90
2022-12-01T05:18:39.753Z,59.67
2022-12-01T05:21:08.786Z,53.83
2022-12-01T05:23:38.565Z,58.17
2022-12-01T05:26:08.378Z,58.73
2022-12-01T05:28:38.656Z,50.40
2022-12-01T05:31:06.821Z,47.13
2022-12-01T05:33:34.787Z,39.43
2022-12-01T05:36:02.817Z,37.60
2022-12-01T05:38:30.811Z,51.27
2022-12-01T05:40:58.594Z,45.73
2022-12-01T05:43:29.292Z,62.87
2022-12-01T05:45:59.753Z,39.53
2022-12-01T05:48:27.837Z,49.37
2022-12-01T05:50:55.658Z,43.43
2022-12-01T05:53:23.624Z,46.33
2022-12-01T05:55:53.708Z,51.97
2022-12-01T05:58:21.779Z,49.00
2022-12-01T06:00:49.595Z,37.23
2022-12-01T06:03:18.983Z,43.77
2022-12-01T06:05:46.852Z,40.47
2022-12-01T06:08:14.699Z,41.37
2022-12-01T06:10:42.737Z,39.03
2022-12-01T06:13:11.242Z,47.57
2022-12-01T06:15:39.176Z,44.90
2022-12-01T06:18:07.086Z,52.40
2022-12-01T06:20:36.487Z,44.77
2022-12-01T06:23:04.642Z,61.60
2022-12-01T06:25:32.486Z,44.70
2022-12-01T06:28:00.576Z,44.17
2022-12-01T06:30:28.409Z,53.33
2022-12-01T06:32:56.247Z,53.53
2022-12-01T06:35:24.102Z,49.60
2022-12-01T06:37:54.229Z,48.87
2022-12-01T06:40:22.422Z,52.33
2022-12-01T06:42:50.232Z,59.87
2022-12-01T06:45:18.709Z,50.30
2022-12-01T06:47:48.229Z,60.67
2022-12-01T06:50:16.232Z,54.63
2022-12-01T06:52:44.018Z,51.80
2022-12-01T06:55:13.449Z,52.40
2022-12-01T06:57:41.682Z,54.47
2022-12-01T07:00:12.595Z,52.50
2022-12-01T07:02:40.881Z,50.37
2022-12-01T07:05:09.586Z,51.63
2022-12-01T07:07:38.666Z,49.97
2022-12-01T07:10:07.864Z,50.17
2022-12-01T07:12:37.268Z,55.67
2022-12-01T07:15:06.160Z,51.23
2022-12-01T07:17:34.467Z,48.33
2022-12-01T07:20:02.282Z,45.17
2022-12-01T07:22:32.811Z,46.33
2022-12-01T07:25:00.950Z,43.20
2022-12-01T07:27:31.162Z,48.80
2022-12-01T07:30:00.428Z,52.73
2022-12-01T07:32:28.255Z,56.13
2022-12-01T07:34:56.135Z,52.50
2022-12-01T07:37:23.912Z,51.83
2022-12-01T07:39:51.937Z,52.20
2022-12-01T07:42:19.847Z,48.77
2022-12-01T07:44:48.005Z,60.00
2022-12-01T07:47:17.502Z,56.10
2022-12-01T07:49:45.374Z,49.10
2022-12-01T07:52:13.188Z,51.73
2022-12-01T07:54:41.033Z,58.43
2022-12-01T07:57:08.857Z,54.33
2022-12-01T07:59:36.706Z,55.53
2022-12-01T08:02:04.708Z,52.70
2022-12-01T08:04:34.705Z,54.37
2022-12-01T08:07:02.638Z,54.27
2022-12-01T08:09:30.906Z,63.80
2022-12-01T08:11:58.711Z,48.63
2022-12-01T08:14:26.567Z,60.63
2022-12-01T08:16:54.471Z,59.57
2022-12-01T08:19:22.336Z,56.20
2022-12-01T08:21:51.508Z,46.00
2022-12-01T08:24:19.654Z,63.90
2022-12-01T08:26:47.509Z,48.27
2022-12-01T08:29:19.959Z,53.07
2022-12-01T08:31:49.031Z,51.50
2022-12-01T08:34:17.142Z,53.97
2022-12-01T08:36:45.269Z,41.53
2022-12-01T08:39:14.481Z,55.23
2022-12-01T08:41:42.503Z,52.13
2022-12-01T08:44:11.433Z,47.43
2022-12-01T08:46:39.510Z,44.97
2022-12-01T08:49:07.931Z,52.73
2022-12-01T08:51:36.410Z,42.60
2022-12-01T08:54:04.737Z,45.47
2022-12-01T08:56:36.038Z,55.63
2022-12-01T08:59:03.922Z,43.20
2022-12-01T09:01:32.995Z,43.37
2022-12-01T09:04:08.790Z,33.33
2022-12-01T09:06:40.569Z,47.00
2022-12-01T09:09:08.749Z,43.03
2022-12-01T09:11:38.347Z,44.43
2022-12-01T09:14:06.188Z,43.43
2022-12-01T09:16:34.262Z,41.27
2022-12-01T09:19:02.597Z,41.27
2022-12-01T09:21:34.920Z,48.93
2022-12-01T09:24:03.647Z,38.80
2022-12-01T09:26:32.020Z,43.73
2022-12-01T09:29:02.735Z,37.60
2022-12-01T09:31:30.782Z,33.80
2022-12-01T09:34:00.756Z,28.77
2022-12-01T09:36:30.228Z,36.93
2022-12-01T09:38:58.337Z,36.17
2022-12-01T09:41:31.198Z,38.50
2022-12-01T09:44:10.607Z,34.57
2022-12-01T09:46:43.577Z,35.47
2022-12-01T09:49:18.765Z,34.57
2022-12-01T09:51:47.155Z,38.80
2022-12-01T09:54:15.941Z,36.83
2022-12-01T09:56:49.412Z,36.77
2022-12-01T09:59:22.632Z,39.63
2022-12-01T10:01:55.194Z,41.07
2022-12-01T10:04:30.185Z,41.40
2022-12-01T10:07:02.796Z,40.93
2022-12-01T10:09:37.590Z,38.93
2022-12-01T10:12:15.450Z,48.03
2022-12-01T10:14:47.108Z,39.47
2022-12-01T10:17:30.622Z,43.67
2022-12-01T10:20:05.001Z,46.37
2022-12-01T10:23:00.478Z,40.17
2022-12-01T10:25:32.973Z,39.70
2022-12-01T10:28:12.578Z,44.90
2022-12-01T10:30:51.428Z,52.47
2022-12-01T10:33:24.675Z,43.23
2022-12-01T10:35:53.592Z,42.53
2022-12-01T10:38:27.502Z,46.67
2022-12-01T10:40:58.559Z,51.23
2022-12-01T10:43:33.665Z,46.43
2022-12-01T10:46:11.950Z,47.50
2022-12-01T10:48:54.219Z,45.90
2022-12-01T10:51:22.717Z,50.10
2022-12-01T10:53:51.281Z,50.90
2022-12-01T10:56:21.519Z,45.03
2022-12-01T10:58:53.079Z,42.57
2022-12-01T11:01:25.797Z,40.47
2022-12-01T11:03:57.030Z,41.40
2022-12-01T11:06:27.916Z,39.20
2022-12-01T11:08:58.915Z,48.87
2022-12-01T11:11:33.603Z,37.60
2022-12-01T11:14:04.514Z,36.53
2022-12-01T11:16:42.394Z,35.43
2022-12-01T11:19:26.627Z,33.03
2022-12-01T11:21:56.864Z,37.93
2022-12-01T11:24:30.861Z,36.20
2022-12-01T11:27:00.073Z,36.83
2022-12-01T11:29:35.516Z,34.67
2022-12-01T11:32:17.180Z,39.57
2022-12-01T11:34:51.522Z,38.47
2022-12-01T11:37:22.435Z,37.13
2022-12-01T11:39:53.017Z,42.93
2022-12-01T11:42:27.073Z,42.73
2022-12-01T11:44:58.217Z,38.43
2022-12-01T11:47:28.900Z,45.30
2022-12-01T11:49:58.645Z,53.00
2022-12-01T11:52:30.131Z,54.30
2022-12-01T11:55:03.268Z,50.47
2022-12-01T11:57:36.243Z,53.50
2022-12-01T12:00:13.532Z,45.23
2022-12-01T12:02:51.062Z,53.23
2022-12-01T12:05:40.796Z,50.87
2022-12-01T12:08:18.208Z,58.07
2022-12-01T12:10:55.774Z,51.40
2022-12-01T12:13:42.314Z,47.50
2022-12-01T12:16:20.028Z,51.50
2022-12-01T12:19:02.879Z,48.00
2022-12-01T12:21:34.738Z,51.67
2022-12-01T12:24:18.822Z,47.67
2022-12-01T12:26:53.866Z,48.17
2022-12-01T12:29:34.482Z,48.17
2022-12-01T12:32:19.722Z,53.03
2022-12-01T12:34:57.193Z,49.83
2022-12-01T12:37:36.145Z,48.30
2022-12-01T12:40:37.604Z,49.07
2022-12-01T12:43:21.093Z,52.93
2022-12-01T12:46:06.227Z,51.77
2022-12-01T12:49:31.908Z,53.27
2022-12-01T12:51:57.228Z,44.73
2022-12-01T12:54:31.481Z,44.40
2022-12-01T12:57:04.013Z,47.07
2022-12-01T12:59:40.756Z,41.90
2022-12-01T13:02:14.003Z,49.30
2022-12-01T13:04:53.257Z,46.57
2022-12-01T13:07:33.990Z,46.63
2022-12-01T13:10:11.319Z,51.63
2022-12-01T13:12:44.629Z,51.93
2022-12-01T13:15:17.407Z,49.30
2022-12-01T13:17:48.313Z,54.13
2022-12-01T13:20:18.339Z,46.83
2022-12-01T13:22:49.247Z,50.93
2022-12-01T13:25:26.871Z,50.00
2022-12-01T13:27:56.542Z,44.80
2022-12-01T13:30:26.476Z,53.23
2022-12-01T13:33:01.243Z,51.47
2022-12-01T13:35:33.052Z,49.27
2022-12-01T13:38:26.084Z,53.40
2022-12-01T13:41:25.140Z,48.43
2022-12-01T13:44:00.003Z,53.50
2022-12-01T13:46:30.662Z,49.80
2022-12-01T13:49:00.864Z,50.37
2022-12-01T13:51:48.939Z,59.47
2022-12-01T13:54:31.432Z,56.60
2022-12-01T13:57:04.747Z,56.77
2022-12-01T13:59:58.055Z,58.37
2022-12-01T14:02:27.440Z,56.00
2022-12-01T14:04:55.709Z,56.63
2022-12-01T14:07:44.391Z,62.07
2022-12-01T14:10:25.602Z,56.27
2022-12-01T14:12:56.923Z,54.73
2022-12-01T14:15:40.340Z,61.13
2022-12-01T14:18:23.147Z,69.77
2022-12-01T14:20:51.458Z,62.73
2022-12-01T14:23:29.277Z,65.57
2022-12-01T14:26:10.797Z,61.33
2022-12-01T14:29:21.132Z,57.37
2022-12-01T14:32:23.381Z,60.33
2022-12-01T14:34:58.596Z,55.03
2022-12-01T14:37:34.508Z,59.13
2022-12-01T14:40:07.897Z,58.93
2022-12-01T14:43:00.355Z,59.33
2022-12-01T14:45:32.784Z,59.30
2022-12-01T14:48:04.362Z,69.40
2022-12-01T14:50:46.391Z,61.20
2022-12-01T14:53:24.646Z,63.60
2022-12-01T14:55:57.508Z,62.37
2022-12-01T14:58:28.941Z,58.03
2022-12-01T15:01:07.677Z,64.53
2022-12-01T15:03:42.671Z,62.40
2022-12-01T15:06:11.540Z,66.97
2022-12-01T15:08:45.926Z,62.77
2022-12-01T15:11:25.336Z,58.57
2022-12-01T15:13:56.177Z,65.57
2022-12-01T15:16:26.367Z,65.20
2022-12-01T15:18:54.774Z,67.37
2022-12-01T15:21:27.231Z,65.50
2022-12-01T15:23:57.969Z,70.43
2022-12-01T15:26:28.028Z,67.20
2022-12-01T15:29:15.570Z,63.93
2022-12-01T15:31:44.972Z,77.47
2022-12-01T15:34:17.135Z,68.03
2022-12-01T15:36:46.022Z,68.40
2022-12-01T15:39:17.713Z,64.77
2022-12-01T15:41:48.351Z,70.57
2022-12-01T15:44:23.953Z,73.10
2022-12-01T15:46:51.826Z,66.53
2022-12-01T15:49:21.953Z,63.43
2022-12-01T15:51:51.384Z,55.53
2022-12-01T15:54:22.408Z,64.80
2022-12-01T15:56:54.288Z,74.17
2022-12-01T15:59:38.472Z,70.90
2022-12-01T16:02:24.518Z,66.17
2022-12-01T16:05:02.627Z,67.43
2022-12-01T16:08:11.051Z,61.27
2022-12-01T16:10:31.458Z,58.40
2022-12-01T16:13:45.041Z,62.17
2022-12-01T16:16:39.183Z,65.90
2022-12-01T16:19:27.187Z,65.13
2022-12-01T16:21:59.128Z,67.90
2022-12-01T16:24:31.761Z,65.07
2022-12-01T16:27:04.931Z,68.97
2022-12-01T16:29:36.455Z,73.30
2022-12-01T16:32:20.649Z,67.87
2022-12-01T16:34:50.062Z,60.57
2022-12-01T16:37:18.350Z,66.67
2022-12-01T16:39:46.527Z,70.90
2022-12-01T16:42:20.566Z,67.77
2022-12-01T16:44:49.715Z,67.13
2022-12-01T16:47:21.085Z,68.33
2022-12-01T16:49:49.814Z,67.93
2022-12-01T16:55:25.280Z,72.90
2022-12-01T16:57:53.445Z,72.57
2022-12-01T17:00:22.094Z,68.97
2022-12-01T17:02:52.679Z,70.80
2022-12-01T17:05:21.089Z,61.33
2022-12-01T17:07:49.120Z,72.50
2022-12-01T17:10:17.881Z,76.50
2022-12-01T17:12:45.819Z,66.50
2022-12-01T17:15:14.059Z,66.20
2022-12-01T17:17:42.048Z,65.43
2022-12-01T17:20:12.257Z,74.40
2022-12-01T17:22:40.350Z,73.10
2022-12-01T17:25:10.610Z,78.83
2022-12-01T17:27:39.529Z,67.63
2022-12-01T17:30:09.251Z,68.83
2022-12-01T17:32:38.043Z,76.87
2022-12-01T17:35:06.830Z,70.40
2022-12-01T17:37:39.035Z,73.83
2022-12-01T17:40:09.606Z,67.50
2022-12-01T17:42:37.760Z,62.07
2022-12-01T17:45:06.754Z,69.17
2022-12-01T17:47:34.663Z,63.53
2022-12-01T17:50:02.734Z,70.77
2022-12-01T17:52:30.931Z,72.13
2022-12-01T17:55:00.296Z,65.13
2022-12-01T17:57:31.136Z,68.50
2022-12-01T17:59:59.039Z,71.00
2022-12-01T18:02:27.011Z,76.23
2022-12-01T18:04:55.365Z,64.73
2022-12-01T18:07:23.328Z,67.43
2022-12-01T18:09:51.261Z,63.53
2022-12-01T18:12:20.590Z,67.73
2022-12-01T18:14:48.940Z,76.90
2022-12-01T18:17:17.114Z,73.63
2022-12-01T18:19:45.094Z,67.07
2022-12-01T18:22:13.166Z,64.90
2022-12-01T18:24:41.019Z,71.80
2022-12-01T18:27:09.052Z,66.93
2022-12-01T18:29:38.600Z,67.73
2022-12-01T18:32:06.758Z,64.40
2022-12-01T18:34:37.761Z,68.47
2022-12-01T18:37:06.016Z,62.93
2022-12-01T18:39:34.059Z,62.13
2022-12-01T18:42:02.672Z,59.73
2022-12-01T18:44:31.018Z,62.00
2022-12-01T18:47:02.634Z,57.63
2022-12-01T18:49:30.933Z,56.53
2022-12-01T18:51:59.844Z,58.47
2022-12-01T18:54:27.699Z,62.67
2022-12-01T18:56:58.909Z,58.97
2022-12-01T18:59:27.021Z,51.33
2022-12-01T19:01:55.101Z,53.63
2022-12-01T19:04:24.327Z,50.97
2022-12-01T19:06:52.208Z,50.67
2022-12-01T19:09:20.147Z,56.27
2022-12-01T19:11:48.327Z,50.63
2022-12-01T19:14:18.476Z,48.57
2022-12-01T19:16:46.568Z,50.97
2022-12-01T19:19:14.543Z,52.43
2022-12-01T19:21:45.212Z,44.13
2022-12-01T19:24:13.144Z,46.33
2022-12-01T19:26:41.011Z,54.80
2022-12-01T19:29:08.972Z,50.93
2022-12-01T19:31:37.260Z,55.17
2022-12-01T19:34:05.344Z,50.03
2022-12-01T19:36:33.230Z,49.80
2022-12-01T19:39:04.453Z,57.30
2022-12-01T19:41:35.302Z,59.30
2022-12-01T19:44:03.232Z,54.87
2022-12-01T19:46:31.197Z,60.27
2022-12-01T19:49:01.324Z,55.97
2022-12-01T19:51:32.478Z,55.73
2022-12-01T19:54:00.394Z,61.20
2022-12-01T19:56:30.258Z,54.80
2022-12-01T19:58:58.573Z,59.73
2022-12-01T20:01:27.415Z,51.37
2022-12-01T20:03:55.904Z,61.30
2022-12-01T20:06:25.569Z,52.90
2022-12-01T20:08:54.004Z,50.20
2022-12-01T20:11:21.828Z,54.67
2022-12-01T20:13:51.550Z,57.93
2022-12-01T20:16:21.389Z,55.47
2022-12-01T20:18:49.948Z,53.10
2022-12-01T20:21:20.571Z,45.67
2022-12-01T20:23:50.802Z,49.40
2022-12-01T20:26:20.343Z,53.97
2022-12-01T20:28:51.378Z,49.53
2022-12-01T20:31:21.593Z,50.73
2022-12-01T20:33:50.531Z,50.70
2022-12-01T20:36:18.650Z,53.00
2022-12-01T20:38:46.733Z,55.57
2022-12-01T20:41:14.935Z,54.07
2022-12-01T20:43:42.811Z,50.27
2022-12-01T20:46:12.453Z,44.53
2022-12-01T20:48:40.671Z,48.10
2022-12-01T20:51:10.207Z,51.43
2022-12-01T20:53:38.086Z,53.30
2022-12-01T20:56:08.276Z,43.67
2022-12-01T20:58:37.987Z,48.47
2022-12-01T21:01:09.362Z,48.90
2022-12-01T21:03:40.878Z,46.87
2022-12-01T21:06:09.618Z,44.60
2022-12-01T21:08:38.549Z,42.90
2022-12-01T21:11:07.913Z,43.67
2022-12-01T21:13:42.306Z,45.87
2022-12-01T21:16:21.326Z,42.10
2022-12-01T21:18:52.937Z,42.57
2022-12-01T21:21:27.491Z,45.40
2022-12-01T21:24:09.776Z,43.63
2022-12-01T21:26:38.143Z,45.13
2022-12-01T21:29:18.464Z,47.10
2022-12-01T21:31:46.452Z,49.83
2022-12-01T21:34:19.624Z,41.77
2022-12-01T21:36:48.762Z,43.73
2022-12-01T21:39:18.893Z,43.30
2022-12-01T21:41:46.801Z,44.10
2022-12-01T21:44:17.403Z,47.27
2022-12-01T21:46:45.754Z,46.60
2022-12-01T21:49:18.648Z,44.77
2022-12-01T21:51:48.033Z,45.07
2022-12-01T21:54:19.511Z,43.80
2022-12-01T21:56:48.997Z,49.47
2022-12-01T21:59:20.729Z,47.63
2022-12-01T22:01:50.432Z,42.80
2022-12-01T22:04:22.028Z,42.17
2022-12-01T22:06:52.446Z,42.30
2022-12-01T22:09:24.598Z,44.27
2022-12-01T22:11:54.931Z,44.63
2022-12-01T22:14:25.181Z,44.00
2022-12-01T22:16:57.291Z,45.30
2022-12-01T22:19:30.666Z,46.23
2022-12-01T22:22:02.354Z,43.00
2022-12-01T22:24:40.954Z,49.87
2022-12-01T22:27:25.860Z,50.93
2022-12-01T22:29:58.612Z,48.40
2022-12-01T22:32:55.223Z,43.17
2022-12-01T22:35:27.975Z,46.93
2022-12-01T22:38:00.714Z,47.30
2022-12-01T22:40:43.971Z,52.40
2022-12-01T22:43:25.339Z,49.23
2022-12-01T22:46:03.848Z,51.60
2022-12-01T22:48:36.544Z,49.20
2022-12-01T22:51:22.062Z,47.33
2022-12-01T22:53:50.672Z,55.50
2022-12-01T22:56:28.173Z,49.30
2022-12-01T22:58:57.270Z,54.87
2022-12-01T23:01:28.764Z,56.13
2022-12-01T23:04:13.056Z,47.20
2022-12-01T23:07:02.702Z,55.50
2022-12-01T23:09:36.022Z,55.93
2022-12-01T23:12:17.904Z,54.00
2022-12-01T23:14:47.867Z,58.37
2022-12-01T23:17:20.499Z,55.07
2022-12-01T23:19:49.047Z,54.10
2022-12-01T23:22:18.933Z,52.80
2022-12-01T23:24:46.880Z,46.43
2022-12-01T23:27:17.843Z,56.77
2022-12-01T23:29:45.615Z,56.70
2022-12-01T23:32:14.030Z,55.50
2022-12-01T23:34:41.916Z,56.50
2022-12-01T23:37:29.618Z,57.73
2022-12-01T23:39:57.507Z,57.80
2022-12-01T23:42:25.305Z,59.57
2022-12-01T23:44:53.637Z,54.37
2022-12-01T23:47:25.667Z,58.00
2022-12-01T23:49:59.132Z,52.40
2022-12-01T23:52:33.293Z,51.30
2022-12-01T23:55:01.224Z,64.10
2022-12-01T23:57:29.275Z,66.10
